Race Results for
Fontana City National/Pro XCT
Fontana, CA
(Event Information)
Cross Country on 03/27/2010

Note: Ranking points are NOT upgrade points. An explanation of ranking points can be found here.


Men - Cat 3 - Junior - 15-18

 Place Points NameCity, StateTime USAC #BibTeam
1CARSON SCHMECK   0:49:18.93  408 
2DAKOTA PITTMAN   0:54:48.40  345 
3GARRETT GAITHER   0:58:47.41  248 
4SILVER NAVARRETE   0:59:45.00  486 JAX BICYCLE SHOP
5ROBERTO ENCINAS   1:07:56.53  498 THE PEOPLE OF SANTO
DNFALEXANDER BOSCO   DNF  499 INCYCLE

Men - Cat 2 - Junior - 1-14

 Place Points NameCity, StateTime USAC #BibTeam
1MANUEL PEREZ   0:48:52.27  501 
2454.32Kenny Polley   Peoria, AZ0:52:50.15 255203  300 LANDIS/TREK
3483.44Troy Sladeck   Foothill Ranch0:54:00.19 225356  474 SANTA CRUZ S
4512.56Evan Williams   Big Bear City, CA0:56:01.74 255194  460 BEAR VALLEY BIKES
5TYLER HANSEN   0:57:27.39  508 BEAR VALLEY BIKES
6MICHAEL LANSING   1:08:30.33  271 
DNFTanner Peery   Riverside, CADNF 309987  268 
DNFCole Avery   Thousand Oaks, CADNF 281632  364 FAST FRIDAY
DNFMIKEY MONGIELLO   DNF  439 TEAM MONGIELLO

Men - Cat 2 - Junior - 15-16

 Place Points NameCity, StateTime USAC #BibTeam
1TAYLOR SMITH   0:45:14.97  386 WHOLE ATHLETE
2BEN BRADLEY   0:45:16.60  491 SPECIALIZED/APPLEBY
3490.02Cody Phillips   Altadena, CA0:46:46.62 318790  394 MARZOCCHI
4506.68Eliel Anttila   Mill Valley, CA0:46:54.74 297164  241 ABOVE CATEGORY RACIN
5FERNANDO ROMERO   0:47:05.61  230 AUTOTEC
6540.01Cameron Williams   Big Bear City, CA0:48:21.19 245456  458 BEAR VALLEY BIKES
7JARED JORDAN   0:52:27.43  488 FRS/SPY/NO FEAR
8JOHN MOREHOUSE   0:55:04.32  387 
9590.00Nathan Pherigo   Rancho Cucamonga, CA0:55:34.48 274012  273 SOUTHERN CALIFORNIA
DNFJOSH LARSON   DNF  195 LINKED

Men - Cat 2 - Junior - 17-18

 Place Points NameCity, StateTime USAC #BibTeam
1BOB SIEGEL   0:46:20.05  443 ABOVE CATEGO
2BOBBY ZIDEK   0:46:28.80  436 WHOLE ATHLETE
3MAREK MITCHELL   0:49:10.73  493 ROYAL HIGH
4517.01Bryce Semonian   Poway, CA0:53:28.81 276355  321 NORTH OF THE BORDER
5546.50Dallin Davidson   Tustin, CA1:00:26.16 278050  496 
DNFSven Beer   Fairfax, CADNF 298330  471 WHOLE ATHLETE

Men - Cat 1 - Junior - 15-16

 Place Points NameCity, StateTime USAC #BibTeam
1338.11Bryan Duke   Salinas, CA1:04:58.11 287487  238 VOS/CYCLES GLADIATOR
2349.26Casey Williams   Big Bear City, CA1:05:23.91 227522  459 BEAR VALLEY BIKES
3360.41Chase Dickens   Mount Airy, NC1:06:07.15 253981  315 AMERICAN CLASSIC/KEN
4371.56Shane Skelton   Shadowhills, CA1:07:55.03 287620  223 MONTROSE BIKE SHOP
5382.71Ryan Geiger   Flagstaff, AZ1:08:05.86 258285  214 
6393.86Spence Peterson   Mill Valley, CA1:08:23.49 235691  391 ABOVE CATEGO
7KEEGAN SWENSON   1:09:57.31  212 COLE SPORT RACING
8416.16Tyler Coplea   Chandler1:14:00.38 196300  293 SCHAMPA/FORM CYCLES
9427.31Brandon Dillard   Redding, CA1:14:03.15 269771  292 OWENS HEALTHCARE
10438.45TYLER SANDOVAL   Flagstaff, AZ1:17:03.94 272774  326 VOODOO CYCLES
11449.60Kyle Willett   Flagstaff, AZ1:19:30.87 290452  455 ABSOLUTE BIKES
12460.75Quint Berkemeier   Lake Arrowhead, CA1:22:37.36 240136  456 

Men - Cat 1 - Junior - 17-18

 Place Points NameCity, StateTime USAC #BibTeam
1334.23Zachary Valdez   Hemet, CA1:01:58.65 280759  205 WHOLE ATHLETE
2344.31William Curtis   San Rafael, CA1:03:26.64 233101  262 WHOLE ATHLETE
3354.39Joseph Yoham   San Rafael, CA1:04:37.56 257687  260 WHOLE ATHLETE
4RILEY PREDUM   1:05:44.24  219 WHOLE ATHLETE
5374.55Alec Kassin   San Anselmo, CA1:07:00.46 257809  237 WHOLE ATHLETE
6384.63Davis Bentley   Banner Elk, NC1:07:10.71 219980  412 WHOE ATHLETE
7394.70Colby Pastore   Petaluma, CA1:07:49.78 256426  382 WHOLE ATHLETE
8PAYSON MCELVEEN   1:07:58.53  314 
9414.86Tony Smith   San Rafael, CA1:08:02.89 205657  469 WHOLE ATHLETE
10424.94Nick Newcomb   Nicasio, CA1:09:12.37 258299  220 WHOLE ATHLETE
11FELIX WILBERG   1:09:45.52  242 CYCLEMEISTERS/BOW CY
12445.10Roman Brockley   Forestknolls, CA1:10:29.34 284893  317 WHOLE ATHLETE
13455.18Travis Glysson   Anthem, AZ1:10:52.43 305194  243 FCA ENDURANCE
14465.26Ryan Odle   Cherryvalley, CA1:10:56.57 301917  218 GARY FISHER 29er CRE
15475.34Alex Stevenson   Berkeley, CA1:12:24.28 257710  319 WHOLE ATHLETE
16TRAVIS GILDNER   1:14:40.72  313 
17495.49Gene Capinas   North Las Vegas, NV1:14:47.92 197498  245 TEAM MATA
18505.57Chris Johnson   San Marcos, CA1:22:12.74 246447  209 SHO-AIR/SONNANCE
19515.65Michael Dutczak   Crete, IL1:23:46.11 200766  465 SOUTH CHICAGO WHEELM
DNFKevin Fish   Austin, TXDNF 189245  257 
DNFBrandon Droese   Goleta, CADNF 221892  308 PLATINUM PERFORMANCE

Men - Pro - Senior

 Place Points NameCity, StateTime USAC #BibTeam
1167.45Todd Wells   Durango, CO1:46:15.43 83401  SPECIALIZE
2GEOFF KABUSH   1:46:15.93  TEAM MAXXI
3MAX PLAXTON   1:46:17.68  SHOAIR/SPE
4SID TABERLAY   1:46:44.32  SHOAIR/SPE
5SAM SCHULTZ   1:49:29.73  SUBARU-GAR
6DEREK ZANDSTRA   1:50:46.33  3 ROX RACI
7190.68Barry Wicks   Corvallis, OR1:51:19.03 134223  16 KONA
8RAPHAEL GAGNE   1:51:44.33  31 ROCKY MOUN
9ERIC BATTY   1:52:02.77  89 TREK CANAD
10202.29Carl Decker   Bend, OR1:52:56.24 9007  GIANT FACT
11206.16Jeremiah Bishop   Harrisonburg, VA1:53:12.27 3771  12 CANNONDALE
12KRIS SNEDDON   1:53:25.24  20 KONA
13213.90Jeremy Horgan-Kobelski   Boulder, CO1:54:08.47 16737  SUBARU-GAR
14217.77Rob Squire   Sandy, UT1:54:37.47 267198  84 U23 NATION
15PETER GLASSFORD   1:54:44.29  72 
16BENJAMIN SONNTAG   1:55:41.45  26 
17ADAM MORKA   1:56:22.59  70 TREK CANAD
18233.26Andy Schultz   Missoula, MT1:56:43.64 172534  13 KENDA/FELT
19237.13Colin Cares   Boulder, CO1:57:03.91 216528  93 KENDA/FELT
20241.00Russell Finsterwald   Colorado Springs, CO1:57:12.48 228336  24 SUBARU/GAR
21244.87Spencer Paxson   Bellingham, WA1:57:37.64 152029  46 TEAM S&M-K
22248.74Vincent LOMBARDI   Los Angeles, CA1:58:41.99 292509  61 SHO-AIR/SO
23252.62Travis (TJ) Woodruff   Prescott, AZ1:59:02.91 135975  57 TREK BICYC
24256.49Travis Livermon   Lewisville, NC1:59:24.04 161583  63 CHAMPION S
25260.36Stephen Ettinger   Bozeman, MT1:59:24.36 189074  65 MAFIA/FELT
26264.23Ryan Woodall   Ocala, FL2:00:51.06 153440  68 BRICK CITY
27268.10Jeff Herrera   Tempe, AZ2:00:56.05 210732  73 HAMMERHEAD
28271.97Alexander Grant   Salt Lake City, UT2:01:00.72 101189  75 CANNONDALE
29SONDRE NORLAND   2:01:03.79  71 NOR
30279.72Ryan Trebon   Bend, OR2:01:35.50 136658  43 KONA/FSA
31CODY CANNING   2:01:49.83  36 
32ZACHARY HUGHES   2:02:30.34  38 
33291.33Robert Marion   Mount Airy, NC2:02:35.29 220597  67 AMERICAN C
34KEN ONODERA   2:02:36.76  30 SUBARU-GAR
35299.07Kalan Beisel   Colorado Springs, CO2:03:57.33 244363  39 PROCYCLING
36TYSON WAGLER   2:04:06.12  41 3 ROX RACI
37MIGUEL VALADEZ   2:04:27.49  97 
38DROR PEKATCH   2:04:47.35  52 SUBARUR-GA
39314.56Bryan Alders   Boulder, CO2:04:51.94 198436  56 
40318.43T Burke Swindlehurst   Salt Lake City, UT2:04:52.89 51227  25 TEAMGIVE/B
41322.30Kevin Smallman   San Leandro, CA2:05:41.41 204144  88 CANNONDALE
42326.17Drew Edsall   Denver, CO2:05:54.79 225238  48 YETI
43EVAN GUTHRIE   2:06:09.44  35 
44333.91Kerry Werner   Banner Elk, NC2:06:11.17 264350  21 
45ANDREW L'ESPERANCE   2:06:11.49  37 
46341.66Paul Freiwald   Lake Forest, CA2:07:11.07 12367  92 PIVOT CYCL
47345.53Tim Allen   Golden, CO2:07:24.31 161831  32 
48349.40Jim Hewett   Fairfax, CA2:08:22.26 226388  54 
49353.27Daniel McNaughton   Martinez, CA2:08:31.13 110305  85 CONTENT WO
50357.14Zachary Keller   Mesa, AZ2:09:32.42 257387  27 FORM CYCLE
51361.01Michael Mooradian   Saratoga Springs, NYPULLED 79201  44 
52364.88Menso de Jong   Cupertino, CAPULLED 243003  80 SANTA CRUZ
53368.75Jason Siegle   Solvang, CAPULLED 193522  53 BIKE RELIG
54ETHAN GILMOUR   PULLED  29 
55376.50Gregory Carpenter   Durango, COPULLED 191158  49 
56380.37Scott Keller   Sedona, AZPULLED 125723  77 
57384.24Eric Emsky   Durango, COPULLED 218345  51 BLUE COMPI
58388.11Brent Steinberg   Grand Junction, COPULLED 252120  59 GARY FISHE
59391.98Alex Boone   Pasadena, CAPULLED 224203  96 TREK MTN C
60395.85Randall Jacobs   Brighton, MAPULLED 266868  91 WHEELWORKS
61399.72Justin Maka   Albuquerque, NMPULLED 164982  47 HAYES/SPY
62NITISH NAG   PULLED  81 NRL RACING
63HAYDN BOUCHER   PULLED  58 3ROX RACIN
64411.34Lucas Livermon   Carrboro, NCPULLED 161552  66 INLAND CON
65415.21Ryan Clark   Laguna Hills, CAPULLED 242802  60 CYNERGY CY
66JOHN NOBIL   PULLED  23 BEAR VALLE
67422.95Dylan Stucki   Durango, COPULLED 192016  86 MAFIA RACI
68426.82Robert Sousa   Thornton, COPULLED 250172  40 PRO CYCLIN
69430.69Trevor Downing   Durango, COPULLED 161859  69 MAFIA RACI
70YUKI SAITO   PULLED  28 TOPEAK-ERG
71438.44Matthew Connors   Scottsdale, AZPULLED 196490  74 BICYCLE RA
72TOM OBRIEN   PULLED  90 
73PATRICK DENNIS   PULLED  78 
74450.05Eric Bierman   Newport Beach, CAPULLED 44269  62 STEVEN K S
75MATTHEW PAZIUK   PULLED  87 TREK STORE
76457.79Nicholas Stevens   Boulder, COPULLED 237516  45 WALTWORKS
77RYAN DORSEY   PULLED  55 HONEY STON
78465.54Garnet Vertican   Crestline, CAPULLED 43191  98 BIG RING
DNFMatthew Miller   Nazareth, PADNF 206833  83 GIANT MID
DNFAaron Snyder   State College, PADNS 204182  82 
DNFErik Tonkin   Portland, ORDNS 35742  42 KONA
DNFDezmin Wilder   Grass Valley, CADNF 225330  95 SOBE CANNO
DNFAaron Bradford   Santa Cruz, CADNF 156335  79 SPECIALIZE
DNFMitchell Hoke   Boulder, CODNF 203760  33 TOKYO JOES
DNFJohn Bennett   El Cerrito, CADNF 237917  94 WHOLE ATHL
DNFNicholas Weighall   Santa Cruz , CADNS 128164  64 RADRACING
DNFBryan VanVleet   Oceanside, CADNF 195988  22 KHS BICYCL
DNFBraden Kappius   Littleton, CODNF 132490  34 CLIF BAR
DNFDavid (Tinker) Juarez   Whittier, CADNF 18332  50 FACTORY CA
DNFCAMERON JETTE   DNF  76 LA BICICLE

Men - Junior - 1-10

 Place Points NameCity, StateTime USAC #BibTeam
1540.00Jag Barton   Thousand Oaks, CA0:32:49.42 299371  489 
2547.14Nathan Hickey   Monrovia, CA0:35:09.00 319320  200 VANTASSEL
3KYLE KIRBY   0:37:29.61  410 INT N CHRISTIAN CYCL
4561.43Jonah Sanchez   Winchester, CA0:45:39.46 306696  203 
5DYLAN EATON   0:55:01.96  309 SHO-AIR/VELOSPORT
6DARIN TAKEDA   0:58:44.37  503 PLATINUM PERFORMANCE
7GARETH EATON   1:03:11.30  310 SHO-AIR/VELOSPORT
8590.00Andrew Comer   San Marcos, CA1:08:48.12 290914  177 AQUA AL2/SDBC

Men - Junior - 11-12

 Place Points NameCity, StateTime USAC #BibTeam
1536.03David Polley   Peoria, AZ0:32:04.18 271015  299 LANDIS/TREK
2559.96Reny Takeda   Santa Barbara, CA0:39:04.30 253638  504 PLATINUM PERFORMANCE
3DEREK FLANIGAN   0:45:51.70  404 

Men - Junior - 13-14

 Place Points NameCity, StateTime USAC #BibTeam
1MAX MCCOLLUM   0:28:51.41  492 
2531.25Christian Husband   Corona, CA0:29:15.60 291064  441 
3JACKSON SPROUL   0:39:10.83  500 CHICKEN RANCH
DNFCameron Shirley   Camarillo, CADNF 303697  487 CENTRAL COAST VELO

Women - Cat 3 - Junior - 15-18

 Place Points NameCity, StateTime USAC #BibTeam
1Sophie Wilson   Santa Barbara, CA1:18:39.72 286664  235 ECHELON

Women - Cat 2 - Junior - 15-18

 Place Points NameCity, StateTime USAC #BibTeam
1Myia Spiroff   Mesa, AZ0:56:45.99 256810  264 SCHAMPA RACING
2CAELI BARRON   0:57:32.30  289 

Women - Cat 1 - Junior - 15-18

 Place Points NameCity, StateTime USAC #BibTeam
1322.79Sofia Hamilton   San Anselmo, CA0:54:14.98 298034  236 WHOLE ATHLLETE
2364.86Alexis Ryan   Ventura, CA0:54:50.71 205156  495 THE TEAM / SOCALCROS
3406.93Victoria Yoham   San Rafael, CA0:54:51.17 297967  473 WHOLE ATHLETE
4KATE COURTNEY   0:55:46.89  297 WHOLE ATHLETE
5491.06Essence Barton   Thousand Oak, CA1:00:40.30 179924  490 

Women - Pro

 Place Points NameCity, StateTime USAC #BibTeam
1LENE BYBERG   1:38:58.68  151 
2150.89Pua Sawicki   Yucaipa, CA1:40:15.42 208698  1005 
3159.54Willow Koerber   Durango, CO1:41:37.82 77103  1006 
4168.19Kelli Emmett   Plymouth Mi1:41:46.52 156146  1009 
5176.84Allison Mann   Lake Elsinore, CA1:41:49.64 268587  1012 
6185.48Georgia Gould   Fort Collins, CO1:42:32.80 183192  1002 
7194.13Heather Irmiger   Boulder, CO1:44:54.66 109232  1003 
8MICAL DYCK   1:45:03.30  152 
9EMILY BATTY   1:46:18.88  1015 
10AMANDA SIN   1:48:17.42  1008 
11228.72Amanda Carey   Victor, ID1:50:45.79 223212  163 
12ALEKSANDRA MOORADIAN   1:51:50.21  154 
13246.02Krista Park   Madison, SD1:51:57.09 203842  161 
14254.67Susan Butler   Portland, OR1:53:15.90 211472  150 
15263.31Judy Freeman   Littleton Co1:55:08.59 182719  164 
16271.96Amy Dombroski   Boulder, CO1:56:54.20 246803  153 
17ANDREANNE PICHETTE   2:02:57.96  158 
18289.26Kari Studley   Bothell, WA2:04:52.49 207049  155 
19297.91Anna Fortner   Carpinteria, CA2:08:50.68 280797  159 
20306.55Lydia Tanner   Boulder, CO2:13:07.54 256646  156 
21315.20Deidre York   Boulder, CO2:15:07.40 178289  160 
22323.85Philicia Marion   Mount Airy, NC2:17:07.30 220598  157 
DNFCATHERINE PENDREL   DNS  1001 

Women - Junior - 1-14

 Place Points NameCity, StateTime USAC #BibTeam
1500.00Courtney Comer   San Marcos, CA0:41:43.29 287901  179 AQUA AL2/SDBC
2545.00Elle Williams   Big Bear City, CA0:50:22.18 302781  494 BEAR VALLEY BIKES
3590.00Cheyenne Comer   San Marcos, CA1:06:11.82 297265  178 AQUA AL2/SDBC

Report missing or incorrect license numbers

Volkswagen
Bonk BreakerShimanoSierra NevadaSpyUSACDF
UCI USA Cycling is the official governing body for all disciplines of competitive cycling in the United States. The 501c3, membership-based organization aims both to achieve sustained success in international cycling competition and to grow competitive cycling in America while delivering an exceptional customer experience.
View Children's Online Privacy Protection Policy
US Olympic Committee